Time;durP1;ratioP1;P1;durP2;ratioP2;P2;SDS_P1;SDS_P2;PMS_P1;PMS_P2;Temp;Humidity;BMP_temperature;BMP_pressure;BME280_temperature;BME280_humidity;BME280_pressure;Samples;Min_cycle;Max_cycle;Signal;HPM_P1;HPM_P2
2023/08/25 00:01:23;;;;;;;2.95;1.52;;;;;;;;;;4992742;28;20260;-74
2023/08/25 00:03:49;;;;;;;1.92;1.55;;;;;;;;;;4992794;28;20210;-74
2023/08/25 00:06:15;;;;;;;4.88;1.65;;;;;;;;;;4992757;28;20233;-74
2023/08/25 00:08:42;;;;;;;3.30;1.70;;;;;;;;;;4991950;28;20317;-74
2023/08/25 00:11:08;;;;;;;4.20;1.77;;;;;;;;;;4992685;28;20227;-75
2023/08/25 00:13:35;;;;;;;4.53;1.70;;;;;;;;;;4992536;28;20229;-74
2023/08/25 00:16:03;;;;;;;2.85;1.58;;;;;;;;;;4992205;28;20293;-74
2023/08/25 00:18:30;;;;;;;5.25;1.90;;;;;;;;;;4992193;28;20598;-74
2023/08/25 00:20:56;;;;;;;2.58;1.50;;;;;;;;;;4992194;28;20625;-74
2023/08/25 00:23:22;;;;;;;3.90;1.73;;;;;;;;;;4992479;28;20298;-74
2023/08/25 00:25:49;;;;;;;6.38;1.80;;;;;;;;;;4992524;28;20205;-74
2023/08/25 00:28:15;;;;;;;5.78;1.77;;;;;;;;;;4992030;28;20727;-74
2023/08/25 00:30:41;;;;;;;1.63;1.52;;;;;;;;;;4992326;28;20206;-74
2023/08/25 00:33:09;;;;;;;4.95;1.95;;;;;;;;;;4992188;28;20254;-75
2023/08/25 00:35:35;;;;;;;4.30;1.80;;;;;;;;;;4992044;28;20211;-74
2023/08/25 00:38:01;;;;;;;1.98;1.80;;;;;;;;;;4992177;28;20308;-75
2023/08/25 00:40:27;;;;;;;2.92;1.67;;;;;;;;;;4992175;28;20206;-75
2023/08/25 00:42:54;;;;;;;2.25;1.40;;;;;;;;;;4992290;28;20195;-75
2023/08/25 00:45:20;;;;;;;2.70;1.70;;;;;;;;;;4992382;28;20206;-74
2023/08/25 00:47:47;;;;;;;3.78;2.05;;;;;;;;;;4992018;28;20214;-74
2023/08/25 00:50:15;;;;;;;4.03;1.60;;;;;;;;;;4991779;28;20266;-75
2023/08/25 00:52:41;;;;;;;2.00;1.85;;;;;;;;;;4992292;28;20227;-75
2023/08/25 00:55:08;;;;;;;3.63;1.95;;;;;;;;;;4992240;28;20202;-75
2023/08/25 00:57:34;;;;;;;2.45;1.80;;;;;;;;;;4992055;28;20277;-75
2023/08/25 01:00:01;;;;;;;1.70;1.60;;;;;;;;;;4991937;28;20438;-75
2023/08/25 01:02:27;;;;;;;3.78;1.73;;;;;;;;;;4991962;28;20198;-74
2023/08/25 01:04:53;;;;;;;3.90;1.80;;;;;;;;;;4991953;28;20210;-75
2023/08/25 01:07:21;;;;;;;8.43;1.90;;;;;;;;;;4991754;28;20576;-74
2023/08/25 01:09:49;;;;;;;1.60;1.60;;;;;;;;;;4991625;28;20765;-74
2023/08/25 01:12:20;;;;;;;2.83;1.60;;;;;;;;;;4991763;28;20786;-74
2023/08/25 01:14:51;;;;;;;2.10;2.00;;;;;;;;;;4992141;28;20194;-74
2023/08/25 01:17:20;;;;;;;3.97;2.03;;;;;;;;;;4992574;28;20297;-74
2023/08/25 01:19:55;;;;;;;2.78;2.08;;;;;;;;;;4991597;28;20229;-74
2023/08/25 01:22:34;;;;;;;9.30;1.98;;;;;;;;;;4992083;28;20202;-74
2023/08/25 01:25:15;;;;;;;4.55;1.80;;;;;;;;;;4991981;28;20702;-74
2023/08/25 01:27:41;;;;;;;2.50;2.30;;;;;;;;;;4991958;28;20203;-75
2023/08/25 01:30:08;;;;;;;2.80;2.15;;;;;;;;;;4995293;28;20260;-74
2023/08/25 01:32:37;;;;;;;4.07;2.10;;;;;;;;;;4995214;28;20625;-75
2023/08/25 01:35:04;;;;;;;2.08;1.92;;;;;;;;;;4995340;28;20831;-74
2023/08/25 01:37:32;;;;;;;3.22;2.15;;;;;;;;;;4995223;28;20211;-74
2023/08/25 01:40:00;;;;;;;4.82;1.88;;;;;;;;;;4995085;28;20683;-74
2023/08/25 01:42:29;;;;;;;3.15;2.00;;;;;;;;;;4995076;28;20195;-74
2023/08/25 01:44:56;;;;;;;3.33;2.00;;;;;;;;;;4995282;28;20655;-74
2023/08/25 01:47:24;;;;;;;6.03;2.45;;;;;;;;;;4995186;28;20209;-75
2023/08/25 01:49:50;;;;;;;2.75;2.03;;;;;;;;;;4994804;28;20325;-74
2023/08/25 01:52:17;;;;;;;4.63;2.40;;;;;;;;;;4995193;28;20223;-75
2023/08/25 01:54:43;;;;;;;4.50;2.42;;;;;;;;;;4995067;28;20206;-74
2023/08/25 01:57:10;;;;;;;4.05;2.40;;;;;;;;;;4995186;28;20202;-74
2023/08/25 01:59:37;;;;;;;4.85;2.70;;;;;;;;;;4994814;28;20222;-74
2023/08/25 02:02:04;;;;;;;7.57;2.45;;;;;;;;;;4994968;28;20211;-75
2023/08/25 02:04:30;;;;;;;4.22;2.53;;;;;;;;;;4994893;28;20198;-74
2023/08/25 02:06:56;;;;;;;3.20;1.95;;;;;;;;;;4994791;28;20261;-74
2023/08/25 02:09:23;;;;;;;4.75;2.40;;;;;;;;;;4994328;28;20231;-74
2023/08/25 02:11:50;;;;;;;5.72;2.47;;;;;;;;;;4994757;28;20230;-74
2023/08/25 02:14:16;;;;;;;2.67;2.20;;;;;;;;;;4994685;28;20281;-74
2023/08/25 02:16:43;;;;;;;3.25;2.55;;;;;;;;;;4994663;28;20198;-74
2023/08/25 02:19:10;;;;;;;4.47;2.70;;;;;;;;;;4994323;28;20285;-74
2023/08/25 02:21:36;;;;;;;3.67;2.25;;;;;;;;;;4994391;28;20249;-75
2023/08/25 02:24:02;;;;;;;3.78;2.28;;;;;;;;;;4994312;28;20253;-75
2023/08/25 02:26:28;;;;;;;6.00;2.85;;;;;;;;;;4994560;28;20306;-74
2023/08/25 02:28:55;;;;;;;5.90;2.10;;;;;;;;;;4994120;28;20273;-74
2023/08/25 02:31:21;;;;;;;6.53;2.17;;;;;;;;;;4994215;28;20549;-74
2023/08/25 02:33:49;;;;;;;2.60;2.10;;;;;;;;;;4994098;28;20589;-74
2023/08/25 02:36:15;;;;;;;2.50;2.30;;;;;;;;;;4994081;28;20667;-74
2023/08/25 02:38:41;;;;;;;4.10;2.20;;;;;;;;;;4993316;28;20890;-74
2023/08/25 02:41:07;;;;;;;2.25;2.00;;;;;;;;;;4994227;28;20692;-75
2023/08/25 02:43:34;;;;;;;4.32;2.20;;;;;;;;;;4994097;28;20198;-75
2023/08/25 02:46:00;;;;;;;2.63;2.10;;;;;;;;;;4994087;28;20265;-74
2023/08/25 02:48:26;;;;;;;5.93;2.03;;;;;;;;;;4993791;28;20223;-74
2023/08/25 02:50:54;;;;;;;4.85;2.38;;;;;;;;;;4993889;28;20206;-74
2023/08/25 02:53:20;;;;;;;3.17;2.28;;;;;;;;;;4993830;28;20313;-74
2023/08/25 02:55:47;;;;;;;2.20;2.00;;;;;;;;;;4993961;28;20210;-74
2023/08/25 02:58:13;;;;;;;2.55;2.38;;;;;;;;;;4993700;28;20226;-74
2023/08/25 03:00:39;;;;;;;2.53;2.30;;;;;;;;;;4993643;28;20203;-75
2023/08/25 03:03:05;;;;;;;2.35;2.08;;;;;;;;;;4993842;28;20261;-75
2023/08/25 03:05:32;;;;;;;2.97;2.45;;;;;;;;;;4993534;28;20257;-75
2023/08/25 03:07:59;;;;;;;3.95;2.13;;;;;;;;;;4993603;28;20222;-74
2023/08/25 03:10:26;;;;;;;5.40;2.53;;;;;;;;;;4993420;28;20213;-74
2023/08/25 03:12:52;;;;;;;3.70;2.38;;;;;;;;;;4993591;28;20227;-74
2023/08/25 03:15:18;;;;;;;6.65;2.70;;;;;;;;;;4993455;28;20210;-74
2023/08/25 03:17:44;;;;;;;3.15;2.50;;;;;;;;;;4993529;28;20207;-74
2023/08/25 03:20:11;;;;;;;2.85;2.67;;;;;;;;;;4992944;28;20202;-75
2023/08/25 03:22:37;;;;;;;2.40;2.30;;;;;;;;;;4993443;28;20205;-74
2023/08/25 03:25:05;;;;;;;2.40;2.22;;;;;;;;;;4993272;28;20729;-74
2023/08/25 03:27:34;;;;;;;3.17;2.17;;;;;;;;;;4993271;28;20211;-74
2023/08/25 03:30:00;;;;;;;10.02;2.55;;;;;;;;;;4993221;28;20222;-74
2023/08/25 03:32:27;;;;;;;8.30;2.42;;;;;;;;;;4993017;28;20277;-74
2023/08/25 03:34:53;;;;;;;4.50;2.40;;;;;;;;;;4993213;28;20199;-74
2023/08/25 03:37:19;;;;;;;2.45;2.03;;;;;;;;;;4993083;28;20210;-74
2023/08/25 03:39:45;;;;;;;2.78;2.55;;;;;;;;;;4992862;28;20229;-74
2023/08/25 03:42:13;;;;;;;5.68;2.20;;;;;;;;;;4993044;28;20195;-75
2023/08/25 03:44:39;;;;;;;3.97;2.17;;;;;;;;;;4993006;28;20249;-75
2023/08/25 03:47:06;;;;;;;3.42;2.15;;;;;;;;;;4993160;28;20203;-75
2023/08/25 03:49:34;;;;;;;2.38;2.17;;;;;;;;;;4992459;28;20234;-74
2023/08/25 03:52:00;;;;;;;1.95;1.95;;;;;;;;;;4992043;28;20653;-74
2023/08/25 03:54:27;;;;;;;5.70;2.53;;;;;;;;;;4992665;28;20613;-74
2023/08/25 03:56:54;;;;;;;3.50;2.35;;;;;;;;;;4993055;28;20234;-74
2023/08/25 03:59:21;;;;;;;5.28;2.83;;;;;;;;;;4992543;28;20223;-74
2023/08/25 04:01:47;;;;;;;7.05;2.50;;;;;;;;;;4992618;28;20199;-74
2023/08/25 04:04:14;;;;;;;8.80;2.70;;;;;;;;;;4992485;28;20207;-74
2023/08/25 04:06:40;;;;;;;7.55;3.03;;;;;;;;;;4992974;28;20210;-74
2023/08/25 04:09:06;;;;;;;3.55;3.00;;;;;;;;;;4992157;28;20288;-74
2023/08/25 04:11:32;;;;;;;2.92;2.75;;;;;;;;;;4992520;28;20210;-75
2023/08/25 04:13:59;;;;;;;4.75;2.90;;;;;;;;;;4992402;28;20230;-75
2023/08/25 04:16:26;;;;;;;5.97;2.80;;;;;;;;;;4992395;28;20206;-65
2023/08/25 04:18:52;;;;;;;6.72;2.72;;;;;;;;;;4992018;28;20285;-65
2023/08/25 04:21:19;;;;;;;2.90;2.70;;;;;;;;;;4992438;28;20242;-65
2023/08/25 04:23:45;;;;;;;4.57;3.05;;;;;;;;;;4992343;28;20207;-65
2023/08/25 04:26:11;;;;;;;2.90;2.28;;;;;;;;;;4992299;28;20202;-65
2023/08/25 04:28:37;;;;;;;4.97;2.97;;;;;;;;;;4992038;28;20226;-65
2023/08/25 04:31:04;;;;;;;2.75;2.65;;;;;;;;;;4992003;28;20199;-65
2023/08/25 04:33:31;;;;;;;3.28;2.97;;;;;;;;;;4992154;28;20222;-65
2023/08/25 04:35:58;;;;;;;3.90;2.80;;;;;;;;;;4992152;28;20207;-65
2023/08/25 04:38:24;;;;;;;3.13;2.78;;;;;;;;;;4991773;28;20230;-65
2023/08/25 04:40:50;;;;;;;2.88;2.67;;;;;;;;;;4992058;28;20213;-65
2023/08/25 04:43:16;;;;;;;4.40;2.83;;;;;;;;;;4991969;28;20253;-65
2023/08/25 04:45:42;;;;;;;3.05;2.75;;;;;;;;;;4991915;28;20211;-66
2023/08/25 04:48:09;;;;;;;12.20;2.92;;;;;;;;;;4991969;28;20241;-65
2023/08/25 04:50:36;;;;;;;7.47;2.90;;;;;;;;;;4991710;28;20725;-65
2023/08/25 04:53:03;;;;;;;3.92;2.33;;;;;;;;;;4991784;28;20218;-65
2023/08/25 04:55:29;;;;;;;6.18;2.33;;;;;;;;;;4992026;28;20667;-65
2023/08/25 04:57:56;;;;;;;4.18;2.60;;;;;;;;;;4991680;28;20707;-65
2023/08/25 05:00:22;;;;;;;6.80;2.50;;;;;;;;;;4991664;28;20309;-65
2023/08/25 05:02:49;;;;;;;3.40;3.10;;;;;;;;;;4993990;28;20551;-65
2023/08/25 05:05:17;;;;;;;4.10;3.10;;;;;;;;;;4995917;28;20284;-65
2023/08/25 05:07:45;;;;;;;3.17;2.88;;;;;;;;;;4995859;28;20209;-66
2023/08/25 05:10:11;;;;;;;5.10;3.20;;;;;;;;;;4995371;28;20656;-65
2023/08/25 05:12:38;;;;;;;4.60;3.50;;;;;;;;;;4995484;28;20571;-65
2023/08/25 05:15:05;;;;;;;3.78;3.22;;;;;;;;;;4996044;28;20551;-65
2023/08/25 05:17:31;;;;;;;4.07;3.08;;;;;;;;;;4995842;28;20234;-66
2023/08/25 05:19:57;;;;;;;9.65;2.90;;;;;;;;;;4995392;28;20203;-65
2023/08/25 05:22:24;;;;;;;5.80;3.03;;;;;;;;;;4995552;28;20203;-65
2023/08/25 05:24:52;;;;;;;3.10;2.80;;;;;;;;;;4995456;28;20211;-65
2023/08/25 05:27:18;;;;;;;4.38;3.10;;;;;;;;;;4995200;28;20213;-65
2023/08/25 05:29:44;;;;;;;6.43;3.17;;;;;;;;;;4995163;28;20223;-65
2023/08/25 05:32:10;;;;;;;5.28;3.22;;;;;;;;;;4995363;28;20255;-65
2023/08/25 05:34:37;;;;;;;5.50;3.13;;;;;;;;;;4995360;28;20245;-65
2023/08/25 05:37:03;;;;;;;3.17;2.88;;;;;;;;;;4995255;28;20273;-64
2023/08/25 05:39:29;;;;;;;6.35;3.20;;;;;;;;;;4994845;28;20219;-64
2023/08/25 05:41:57;;;;;;;3.00;2.75;;;;;;;;;;4995015;28;20266;-65
2023/08/25 05:44:23;;;;;;;7.15;3.42;;;;;;;;;;4994962;28;20660;-65
2023/08/25 05:46:51;;;;;;;7.13;4.00;;;;;;;;;;4986979;28;20214;-66
2023/08/25 05:49:17;;;;;;;5.47;3.80;;;;;;;;;;4988571;28;20226;-66
2023/08/25 05:51:43;;;;;;;7.57;3.33;;;;;;;;;;4989141;28;20314;-66
2023/08/25 05:54:10;;;;;;;4.35;3.75;;;;;;;;;;4989256;28;20261;-66
2023/08/25 05:56:37;;;;;;;7.32;3.70;;;;;;;;;;4989002;28;20751;-67
2023/08/25 05:59:04;;;;;;;4.28;3.20;;;;;;;;;;4988776;28;20317;-65
2023/08/25 06:01:30;;;;;;;3.55;3.30;;;;;;;;;;4989221;28;20214;-65
2023/08/25 06:03:57;;;;;;;6.38;3.42;;;;;;;;;;4988976;28;20207;-66
2023/08/25 06:06:24;;;;;;;5.90;3.38;;;;;;;;;;4970284;28;20293;-66
2023/08/25 06:08:50;;;;;;;7.20;3.28;;;;;;;;;;4969331;28;20233;-66
2023/08/25 06:11:16;;;;;;;5.93;3.22;;;;;;;;;;4969576;28;20694;-67
2023/08/25 06:13:42;;;;;;;8.68;2.83;;;;;;;;;;4968551;28;20232;-67
2023/08/25 06:16:10;;;;;;;3.42;3.13;;;;;;;;;;4975730;28;20215;-66
2023/08/25 06:18:36;;;;;;;7.65;3.47;;;;;;;;;;4988470;28;20230;-66
2023/08/25 06:21:02;;;;;;;4.75;3.10;;;;;;;;;;4987816;28;20269;-67
2023/08/25 06:23:29;;;;;;;6.82;3.40;;;;;;;;;;4988512;28;20202;-66
2023/08/25 06:25:55;;;;;;;6.45;3.63;;;;;;;;;;4970924;28;20211;-66
2023/08/25 06:28:21;;;;;;;10.13;3.67;;;;;;;;;;4969133;28;20223;-66
2023/08/25 06:30:49;;;;;;;8.57;4.00;;;;;;;;;;4969583;28;20215;-66
2023/08/25 06:33:17;;;;;;;7.95;3.30;;;;;;;;;;4969282;28;20230;-66
2023/08/25 06:35:43;;;;;;;3.92;3.05;;;;;;;;;;4969058;28;20219;-66
2023/08/25 06:38:09;;;;;;;10.75;3.08;;;;;;;;;;4968942;28;20227;-65
2023/08/25 06:40:36;;;;;;;6.38;3.00;;;;;;;;;;4968753;28;20211;-65
2023/08/25 06:43:02;;;;;;;3.38;2.85;;;;;;;;;;4969153;28;20215;-66
2023/08/25 06:45:28;;;;;;;4.57;2.97;;;;;;;;;;4968875;28;20211;-65
2023/08/25 06:47:55;;;;;;;5.05;2.83;;;;;;;;;;4972551;28;20261;-65
2023/08/25 06:50:22;;;;;;;7.32;2.78;;;;;;;;;;4984806;28;20300;-65
2023/08/25 06:52:48;;;;;;;7.95;2.90;;;;;;;;;;4981300;28;20218;-66
2023/08/25 06:55:16;;;;;;;6.03;3.13;;;;;;;;;;4985465;28;20271;-66
2023/08/25 06:57:42;;;;;;;4.70;2.67;;;;;;;;;;4967234;28;20215;-65
2023/08/25 07:00:09;;;;;;;3.25;3.00;;;;;;;;;;4967098;28;20261;-65
2023/08/25 07:02:36;;;;;;;4.97;3.10;;;;;;;;;;4967229;28;21015;-67
2023/08/25 07:05:02;;;;;;;5.75;2.78;;;;;;;;;;4966771;28;20211;-67
2023/08/25 07:07:31;;;;;;;7.60;2.92;;;;;;;;;;4967188;28;20207;-67
2023/08/25 07:09:58;;;;;;;3.08;2.80;;;;;;;;;;4966520;28;20203;-65
2023/08/25 07:12:24;;;;;;;3.90;2.70;;;;;;;;;;4967448;28;20384;-66
2023/08/25 07:14:51;;;;;;;4.30;2.95;;;;;;;;;;4967479;28;20235;-67
2023/08/25 07:17:17;;;;;;;3.45;2.75;;;;;;;;;;4967613;28;20215;-66
2023/08/25 07:19:43;;;;;;;3.88;2.55;;;;;;;;;;4966973;28;20335;-64
2023/08/25 07:22:10;;;;;;;3.05;2.55;;;;;;;;;;4974859;28;20269;-65
2023/08/25 07:24:37;;;;;;;2.75;2.55;;;;;;;;;;4986484;28;20269;-65
2023/08/25 07:27:04;;;;;;;2.90;2.70;;;;;;;;;;4986701;28;20211;-68
2023/08/25 07:29:30;;;;;;;2.90;2.75;;;;;;;;;;4971890;28;20333;-67
2023/08/25 07:31:56;;;;;;;3.88;2.63;;;;;;;;;;4966799;28;20552;-65
2023/08/25 07:34:23;;;;;;;6.90;3.40;;;;;;;;;;4967086;28;20258;-66
2023/08/25 07:36:49;;;;;;;8.23;3.60;;;;;;;;;;4967224;28;20219;-67
2023/08/25 07:39:15;;;;;;;4.28;3.00;;;;;;;;;;4966297;28;20263;-65
2023/08/25 07:41:43;;;;;;;6.50;3.40;;;;;;;;;;4975608;28;20293;-65
2023/08/25 07:44:09;;;;;;;5.20;3.40;;;;;;;;;;4978892;28;20699;-64
2023/08/25 07:46:38;;;;;;;5.38;3.50;;;;;;;;;;4967059;28;20680;-66
2023/08/25 07:49:04;;;;;;;9.02;3.88;;;;;;;;;;4966502;28;20342;-66
2023/08/25 07:51:31;;;;;;;5.53;3.53;;;;;;;;;;4976849;28;20273;-65
2023/08/25 07:53:57;;;;;;;9.70;3.53;;;;;;;;;;4985027;28;20230;-65
2023/08/25 07:56:24;;;;;;;6.20;2.92;;;;;;;;;;4985957;28;20593;-65
2023/08/25 07:58:51;;;;;;;3.88;3.45;;;;;;;;;;4984953;28;20242;-65
2023/08/25 08:01:18;;;;;;;2.95;2.72;;;;;;;;;;4985633;28;20211;-66
2023/08/25 08:03:44;;;;;;;3.22;2.78;;;;;;;;;;4985542;28;20209;-67
2023/08/25 08:06:10;;;;;;;5.75;3.08;;;;;;;;;;4986292;28;20273;-66
2023/08/25 08:08:36;;;;;;;7.85;2.90;;;;;;;;;;4984390;28;20246;-66
2023/08/25 08:11:03;;;;;;;5.20;3.03;;;;;;;;;;4986049;28;20269;-67
2023/08/25 08:13:29;;;;;;;6.93;3.20;;;;;;;;;;4985618;28;20215;-68
2023/08/25 08:15:57;;;;;;;9.63;3.38;;;;;;;;;;4985413;28;20265;-68
2023/08/25 08:18:23;;;;;;;3.63;3.08;;;;;;;;;;4984760;28;20626;-67
2023/08/25 08:20:49;;;;;;;3.85;3.30;;;;;;;;;;4985519;28;20211;-67
2023/08/25 08:23:16;;;;;;;4.93;3.80;;;;;;;;;;4985242;28;20214;-65
2023/08/25 08:25:42;;;;;;;4.50;3.05;;;;;;;;;;4967245;28;20248;-66
2023/08/25 08:28:08;;;;;;;6.50;3.00;;;;;;;;;;4965234;28;21120;-66
2023/08/25 08:30:35;;;;;;;4.15;3.10;;;;;;;;;;4965099;28;20217;-66
2023/08/25 08:33:04;;;;;;;5.05;3.10;;;;;;;;;;4966443;28;20219;-65
2023/08/25 08:35:30;;;;;;;4.78;2.65;;;;;;;;;;4965598;28;20233;-66
2023/08/25 08:37:56;;;;;;;3.53;2.95;;;;;;;;;;4965251;28;20231;-66
2023/08/25 08:40:22;;;;;;;3.72;3.10;;;;;;;;;;4965868;28;20212;-66
2023/08/25 08:42:50;;;;;;;3.50;3.17;;;;;;;;;;4974012;28;20343;-63
2023/08/25 08:45:17;;;;;;;5.75;3.58;;;;;;;;;;4965506;28;20298;-68
2023/08/25 08:47:44;;;;;;;6.15;3.28;;;;;;;;;;4965404;28;20241;-68
2023/08/25 08:50:11;;;;;;;3.10;2.72;;;;;;;;;;4965615;28;20207;-66
2023/08/25 08:52:38;;;;;;;6.78;3.15;;;;;;;;;;4982473;28;20289;-65
2023/08/25 08:55:05;;;;;;;4.20;3.03;;;;;;;;;;4984375;28;20722;-66
2023/08/25 08:57:32;;;;;;;7.70;2.80;;;;;;;;;;4983815;28;20215;-67
2023/08/25 08:59:59;;;;;;;3.47;3.05;;;;;;;;;;4964628;28;20735;-67
2023/08/25 09:02:27;;;;;;;3.50;3.20;;;;;;;;;;4966042;28;20610;-68
2023/08/25 09:04:53;;;;;;;4.80;3.55;;;;;;;;;;4965241;28;20222;-65
2023/08/25 09:07:21;;;;;;;5.78;3.58;;;;;;;;;;4965554;28;20215;-65
2023/08/25 09:09:47;;;;;;;7.03;3.95;;;;;;;;;;4965885;28;20318;-66
2023/08/25 09:12:15;;;;;;;6.43;3.58;;;;;;;;;;4974477;28;20218;-68
2023/08/25 09:14:42;;;;;;;7.43;3.13;;;;;;;;;;4984963;28;20235;-66
2023/08/25 09:17:13;;;;;;;8.63;3.60;;;;;;;;;;4985225;28;20211;-66
2023/08/25 09:19:39;;;;;;;7.32;3.30;;;;;;;;;;4984733;28;20602;-65
2023/08/25 09:22:05;;;;;;;6.72;3.63;;;;;;;;;;4985464;28;20265;-68
2023/08/25 09:24:37;;;;;;;7.22;3.88;;;;;;;;;;4984793;28;20314;-64
2023/08/25 09:27:03;;;;;;;6.00;3.58;;;;;;;;;;4978941;28;20222;-65
2023/08/25 09:29:40;;;;;;;5.35;3.35;;;;;;;;;;4965376;28;20238;-64
2023/08/25 09:32:06;;;;;;;9.02;3.60;;;;;;;;;;4965221;28;20214;-65
2023/08/25 09:34:32;;;;;;;6.38;3.83;;;;;;;;;;4964946;28;20270;-66
2023/08/25 09:36:59;;;;;;;4.03;3.38;;;;;;;;;;4969378;28;20395;-65
2023/08/25 09:39:25;;;;;;;4.47;3.40;;;;;;;;;;4964608;28;20573;-66
2023/08/25 09:41:53;;;;;;;4.63;3.53;;;;;;;;;;4971314;28;20207;-66
2023/08/25 09:44:20;;;;;;;4.30;3.90;;;;;;;;;;4965902;28;20687;-66
2023/08/25 09:46:46;;;;;;;4.13;3.75;;;;;;;;;;4965598;28;20679;-66
2023/08/25 09:49:13;;;;;;;10.05;4.30;;;;;;;;;;4965859;28;20778;-66
2023/08/25 09:51:40;;;;;;;6.30;3.80;;;;;;;;;;4968985;28;20269;-64
2023/08/25 09:54:10;;;;;;;4.65;4.00;;;;;;;;;;4979899;28;20234;-65
2023/08/25 09:56:37;;;;;;;5.78;4.05;;;;;;;;;;4987835;28;20214;-66
2023/08/25 09:59:05;;;;;;;6.75;4.15;;;;;;;;;;4986478;28;20861;-67
2023/08/25 10:01:31;;;;;;;8.43;4.20;;;;;;;;;;4979289;28;20215;-67
2023/08/25 10:03:58;;;;;;;5.78;3.50;;;;;;;;;;4982705;28;20676;-68
2023/08/25 10:06:24;;;;;;;4.55;2.90;;;;;;;;;;4968786;28;20510;-67
2023/08/25 10:08:51;;;;;;;7.22;3.28;;;;;;;;;;4968168;28;20724;-67
2023/08/25 10:11:19;;;;;;;3.10;2.72;;;;;;;;;;4968562;28;20699;-67
2023/08/25 10:13:46;;;;;;;5.53;2.83;;;;;;;;;;4968667;28;20285;-67
2023/08/25 10:16:14;;;;;;;3.17;2.92;;;;;;;;;;4968547;28;20771;-67
2023/08/25 10:18:44;;;;;;;4.05;3.22;;;;;;;;;;4967998;28;20286;-66
2023/08/25 10:21:11;;;;;;;2.80;2.60;;;;;;;;;;4968468;28;20746;-66
2023/08/25 10:23:38;;;;;;;2.60;2.40;;;;;;;;;;4968021;28;20665;-66
2023/08/25 10:26:05;;;;;;;2.70;2.53;;;;;;;;;;4968371;28;20714;-65
2023/08/25 10:28:32;;;;;;;5.68;2.65;;;;;;;;;;4967774;28;20234;-66
2023/08/25 10:30:58;;;;;;;4.97;2.10;;;;;;;;;;4967772;28;20296;-66
2023/08/25 10:33:26;;;;;;;3.40;2.58;;;;;;;;;;4968391;28;20219;-67
2023/08/25 10:35:55;;;;;;;4.25;2.40;;;;;;;;;;4967512;28;20314;-67
2023/08/25 10:38:36;;;;;;;2.47;2.28;;;;;;;;;;4971815;28;20227;-66
2023/08/25 10:41:13;;;;;;;4.70;2.38;;;;;;;;;;4984135;28;20209;-67
2023/08/25 10:43:39;;;;;;;2.03;2.00;;;;;;;;;;4968215;28;20423;-67
2023/08/25 10:46:06;;;;;;;3.05;2.63;;;;;;;;;;4980346;28;20509;-67
2023/08/25 10:48:34;;;;;;;2.70;2.50;;;;;;;;;;4986666;28;20234;-67
2023/08/25 10:51:06;;;;;;;2.45;2.08;;;;;;;;;;4987293;28;20733;-67
2023/08/25 10:53:36;;;;;;;3.85;2.90;;;;;;;;;;4986533;28;20222;-67
2023/08/25 10:56:15;;;;;;;2.65;2.13;;;;;;;;;;4987365;28;20305;-67
2023/08/25 10:58:42;;;;;;;2.88;2.60;;;;;;;;;;4985749;28;20277;-66
2023/08/25 11:01:08;;;;;;;4.15;2.03;;;;;;;;;;4966109;28;20222;-66
2023/08/25 11:03:48;;;;;;;3.10;2.30;;;;;;;;;;4966997;28;20214;-66
2023/08/25 11:06:33;;;;;;;2.30;2.13;;;;;;;;;;4967723;28;20210;-67
2023/08/25 11:08:59;;;;;;;2.42;2.10;;;;;;;;;;4966275;28;20711;-66
2023/08/25 11:11:26;;;;;;;4.65;2.40;;;;;;;;;;4966834;28;20642;-66
2023/08/25 11:13:53;;;;;;;2.13;2.13;;;;;;;;;;4967837;28;20211;-66
2023/08/25 11:16:19;;;;;;;2.90;2.22;;;;;;;;;;4967723;28;20675;-66
2023/08/25 11:18:46;;;;;;;2.65;2.50;;;;;;;;;;4967155;28;20230;-67
2023/08/25 11:21:14;;;;;;;3.50;2.00;;;;;;;;;;4967855;28;20223;-66
2023/08/25 11:23:41;;;;;;;1.92;1.80;;;;;;;;;;4966926;28;20219;-67
2023/08/25 11:26:08;;;;;;;2.05;1.83;;;;;;;;;;4967339;28;20215;-67
2023/08/25 11:28:35;;;;;;;2.30;2.10;;;;;;;;;;4967679;28;20325;-66
2023/08/25 11:31:01;;;;;;;2.35;2.25;;;;;;;;;;4968779;28;20251;-65
2023/08/25 11:33:29;;;;;;;2.30;2.20;;;;;;;;;;4969949;28;20211;-68
2023/08/25 11:35:56;;;;;;;2.10;2.00;;;;;;;;;;4968667;28;20227;-66
2023/08/25 11:38:23;;;;;;;3.53;2.17;;;;;;;;;;4976783;28;20233;-66
2023/08/25 11:40:53;;;;;;;3.08;2.20;;;;;;;;;;4986613;28;20214;-68
2023/08/25 11:43:20;;;;;;;2.28;2.15;;;;;;;;;;4967603;28;20211;-67
2023/08/25 11:45:46;;;;;;;2.05;1.95;;;;;;;;;;4975719;28;20289;-67
2023/08/25 11:48:13;;;;;;;3.42;2.70;;;;;;;;;;4986181;28;20675;-68
2023/08/25 11:50:40;;;;;;;4.93;2.20;;;;;;;;;;4986612;28;20224;-68
2023/08/25 11:53:07;;;;;;;2.63;2.40;;;;;;;;;;4985328;28;20699;-65
2023/08/25 11:55:34;;;;;;;2.28;2.17;;;;;;;;;;4985963;28;20755;-65
2023/08/25 11:58:06;;;;;;;2.33;2.22;;;;;;;;;;4985572;28;20258;-66
2023/08/25 12:00:35;;;;;;;2.55;2.08;;;;;;;;;;4985856;28;20289;-65
2023/08/25 12:03:01;;;;;;;3.28;2.30;;;;;;;;;;4985321;28;20214;-65
2023/08/25 12:05:28;;;;;;;4.63;2.70;;;;;;;;;;4986111;28;20342;-67
2023/08/25 12:07:59;;;;;;;2.45;2.25;;;;;;;;;;4985757;28;20231;-66
2023/08/25 12:10:25;;;;;;;3.15;2.70;;;;;;;;;;4985373;28;20858;-66
2023/08/25 12:12:53;;;;;;;3.83;2.38;;;;;;;;;;4985079;28;20699;-64
2023/08/25 12:15:19;;;;;;;4.53;2.40;;;;;;;;;;4985541;28;20777;-65
2023/08/25 12:17:47;;;;;;;4.57;2.22;;;;;;;;;;4985361;28;20206;-66
2023/08/25 12:20:14;;;;;;;3.90;2.53;;;;;;;;;;4985154;28;20211;-67
2023/08/25 12:43:50;;;;;;;3.35;3.00;;;;;;;;;;4941871;28;20730;-67
2023/08/25 12:46:18;;;;;;;2.80;2.60;;;;;;;;;;4948399;28;20621;-66
2023/08/25 12:48:44;;;;;;;5.25;2.60;;;;;;;;;;4948691;28;20212;-67
2023/08/25 12:51:11;;;;;;;2.80;2.45;;;;;;;;;;4947281;28;20231;-67
2023/08/25 12:53:37;;;;;;;6.43;2.78;;;;;;;;;;4944883;28;20215;-67
2023/08/25 12:56:03;;;;;;;2.83;2.58;;;;;;;;;;4942318;28;20259;-68
2023/08/25 12:58:29;;;;;;;5.72;2.90;;;;;;;;;;4947007;29;20215;-67
2023/08/25 13:00:57;;;;;;;2.63;2.42;;;;;;;;;;4947377;28;20232;-68
2023/08/25 13:03:23;;;;;;;3.80;2.22;;;;;;;;;;4951120;28;20204;-67
2023/08/25 13:05:49;;;;;;;3.47;2.50;;;;;;;;;;4953267;28;20195;-68
2023/08/25 13:08:16;;;;;;;4.53;2.55;;;;;;;;;;4953170;28;20672;-68
2023/08/25 13:10:42;;;;;;;4.40;2.63;;;;;;;;;;4953334;28;20699;-68
2023/08/25 13:13:08;;;;;;;2.80;2.60;;;;;;;;;;4957232;28;20212;-67
2023/08/25 13:15:34;;;;;;;3.50;2.42;;;;;;;;;;4953549;28;20318;-67
2023/08/25 13:18:02;;;;;;;6.70;2.67;;;;;;;;;;4953258;28;20204;-67
2023/08/25 13:20:28;;;;;;;4.57;2.55;;;;;;;;;;4953129;28;20700;-67
2023/08/25 13:22:55;;;;;;;6.72;2.95;;;;;;;;;;4948465;28;20224;-67
2023/08/25 13:25:21;;;;;;;9.48;2.63;;;;;;;;;;4950917;28;20312;-67
2023/08/25 13:27:47;;;;;;;3.10;2.78;;;;;;;;;;4951462;28;20644;-68
2023/08/25 13:30:14;;;;;;;4.30;2.75;;;;;;;;;;4951324;28;20587;-68
2023/08/25 13:32:41;;;;;;;3.10;2.55;;;;;;;;;;4950806;28;20712;-68
2023/08/25 13:35:09;;;;;;;4.55;2.97;;;;;;;;;;4951032;28;20212;-68
2023/08/25 13:37:36;;;;;;;4.75;2.85;;;;;;;;;;4951094;28;20204;-67
2023/08/25 13:40:02;;;;;;;3.78;2.85;;;;;;;;;;4951402;28;20220;-68
2023/08/25 13:42:28;;;;;;;5.53;2.40;;;;;;;;;;4950641;28;20231;-67
2023/08/25 13:44:55;;;;;;;4.82;3.20;;;;;;;;;;4943992;28;20230;-67
2023/08/25 13:47:22;;;;;;;3.92;2.63;;;;;;;;;;4934273;29;20212;-66
2023/08/25 13:49:48;;;;;;;3.22;2.95;;;;;;;;;;4938933;29;20212;-66
2023/08/25 13:52:16;;;;;;;2.97;2.78;;;;;;;;;;4936770;28;20229;-67
2023/08/25 13:54:43;;;;;;;3.22;2.80;;;;;;;;;;4936565;29;20243;-66
2023/08/25 13:57:09;;;;;;;4.05;2.83;;;;;;;;;;4950854;28;20231;-66
2023/08/25 13:59:36;;;;;;;4.38;2.72;;;;;;;;;;4950822;28;20208;-66
2023/08/25 14:02:02;;;;;;;3.13;2.65;;;;;;;;;;4950164;28;20739;-66
2023/08/25 14:04:29;;;;;;;5.53;2.63;;;;;;;;;;4950385;28;20687;-66
2023/08/25 14:06:55;;;;;;;5.63;2.90;;;;;;;;;;4950529;28;20300;-66
2023/08/25 14:09:23;;;;;;;17.40;3.72;;;;;;;;;;4950547;28;20215;-66
2023/08/25 14:11:49;;;;;;;3.10;2.80;;;;;;;;;;4950122;28;20783;-66
2023/08/25 14:14:15;;;;;;;6.32;3.28;;;;;;;;;;4950385;28;20595;-66
2023/08/25 14:16:42;;;;;;;3.75;2.85;;;;;;;;;;4950375;28;20249;-66
2023/08/25 14:19:08;;;;;;;4.25;3.05;;;;;;;;;;4950638;28;20304;-66
2023/08/25 14:21:34;;;;;;;3.30;2.78;;;;;;;;;;4949933;28;20224;-66
2023/08/25 14:24:01;;;;;;;5.32;2.88;;;;;;;;;;4950351;28;20299;-66
2023/08/25 14:26:28;;;;;;;4.65;3.20;;;;;;;;;;4949956;28;20590;-66
2023/08/25 14:28:55;;;;;;;3.40;2.70;;;;;;;;;;4950300;28;20207;-66
2023/08/25 14:31:21;;;;;;;3.17;2.88;;;;;;;;;;4949885;28;20840;-66
2023/08/25 14:33:47;;;;;;;5.75;2.60;;;;;;;;;;4950210;28;20218;-66
2023/08/25 14:36:14;;;;;;;6.05;3.00;;;;;;;;;;4949310;28;20227;-66
2023/08/25 14:38:39;;;;;;;3.47;2.75;;;;;;;;;;4942149;29;20291;-66
2023/08/25 14:41:06;;;;;;;4.07;2.50;;;;;;;;;;4949690;28;20307;-66
2023/08/25 14:43:34;;;;;;;3.97;2.83;;;;;;;;;;4949524;28;20230;-66
2023/08/25 14:46:00;;;;;;;4.03;2.67;;;;;;;;;;4949913;28;20212;-66
2023/08/25 14:48:26;;;;;;;2.72;2.58;;;;;;;;;;4950171;28;20227;-66
2023/08/25 14:50:57;;;;;;;4.10;2.83;;;;;;;;;;4949814;28;20231;-66
2023/08/25 14:53:24;;;;;;;2.90;2.70;;;;;;;;;;4949975;28;20518;-66
2023/08/25 14:55:50;;;;;;;2.65;2.42;;;;;;;;;;4949686;28;20232;-66
2023/08/25 14:58:16;;;;;;;6.32;3.03;;;;;;;;;;4949323;28;20222;-66
2023/08/25 15:00:45;;;;;;;5.40;2.72;;;;;;;;;;4949443;28;20219;-66
2023/08/25 15:03:11;;;;;;;6.93;3.17;;;;;;;;;;4949793;28;20216;-66